Charlton City, Massachusetts
Current Conditions -  °F | °C
As of 5:54 AM on Sunday 21 Dec 2014 (Local Time) from KORH Reporting Station
Overcast Overcast  
Wind Chill: 18°   Ceiling: 500
Heat Index: 26°   Visibility: 10mi
Dew Point: 25°   Wind: 8mph
Humidity: 96%   Direction: 40°NE
Pressure: 30.25"   Gusts: NA
Location:  42.15°N, 71.99°W
Report Text: KORH 211054Z AUTO 04007KT 10SM OVC005 M03/M04 A3025 RMK AO2 SLP258 T10331039
Loading
Personal Weather Stations






























Interactive Weather Map New forecast layout! Learn more

10-Day Weather Forecast

Advertisements
Track Severe Weather on mobile